sensor_id;sensor_type;location;lat;lon;timestamp;P1;durP1;ratioP1;P2;durP2;ratioP2
39020;SDS011;25188;51.958;5.842;2023-12-20T00:01:19;21.20;;;3.90;;
39020;SDS011;25188;51.958;5.842;2023-12-20T00:03:46;19.50;;;3.80;;
39020;SDS011;25188;51.958;5.842;2023-12-20T00:06:11;9.47;;;3.00;;
39020;SDS011;25188;51.958;5.842;2023-12-20T00:08:37;13.37;;;2.90;;
39020;SDS011;25188;51.958;5.842;2023-12-20T00:11:06;17.97;;;3.87;;
39020;SDS011;25188;51.958;5.842;2023-12-20T00:13:31;20.53;;;4.67;;
39020;SDS011;25188;51.958;5.842;2023-12-20T00:15:57;21.27;;;4.93;;
39020;SDS011;25188;51.958;5.842;2023-12-20T00:18:23;21.43;;;6.23;;
39020;SDS011;25188;51.958;5.842;2023-12-20T00:20:48;18.93;;;6.07;;
39020;SDS011;25188;51.958;5.842;2023-12-20T00:23:14;17.27;;;5.77;;
39020;SDS011;25188;51.958;5.842;2023-12-20T00:25:40;20.30;;;5.00;;
39020;SDS011;25188;51.958;5.842;2023-12-20T00:28:06;19.40;;;5.50;;
39020;SDS011;25188;51.958;5.842;2023-12-20T00:30:32;12.53;;;4.50;;
39020;SDS011;25188;51.958;5.842;2023-12-20T00:32:57;15.03;;;4.37;;
39020;SDS011;25188;51.958;5.842;2023-12-20T00:35:23;21.83;;;4.43;;
39020;SDS011;25188;51.958;5.842;2023-12-20T00:37:49;13.43;;;4.17;;
39020;SDS011;25188;51.958;5.842;2023-12-20T00:40:14;21.63;;;3.90;;
39020;SDS011;25188;51.958;5.842;2023-12-20T00:42:40;19.30;;;3.80;;
39020;SDS011;25188;51.958;5.842;2023-12-20T00:45:06;16.03;;;3.60;;
39020;SDS011;25188;51.958;5.842;2023-12-20T00:47:32;13.37;;;3.40;;
39020;SDS011;25188;51.958;5.842;2023-12-20T00:49:58;19.33;;;3.53;;
39020;SDS011;25188;51.958;5.842;2023-12-20T00:52:23;22.77;;;4.63;;
39020;SDS011;25188;51.958;5.842;2023-12-20T00:54:50;17.63;;;3.57;;
39020;SDS011;25188;51.958;5.842;2023-12-20T00:57:15;14.80;;;3.90;;
39020;SDS011;25188;51.958;5.842;2023-12-20T00:59:41;16.17;;;3.30;;
39020;SDS011;25188;51.958;5.842;2023-12-20T01:02:07;18.60;;;3.77;;
39020;SDS011;25188;51.958;5.842;2023-12-20T01:04:33;26.13;;;4.53;;
39020;SDS011;25188;51.958;5.842;2023-12-20T01:06:59;22.63;;;4.27;;
39020;SDS011;25188;51.958;5.842;2023-12-20T01:09:25;17.23;;;3.70;;
39020;SDS011;25188;51.958;5.842;2023-12-20T01:11:51;24.70;;;4.47;;
39020;SDS011;25188;51.958;5.842;2023-12-20T01:14:17;24.10;;;4.17;;
39020;SDS011;25188;51.958;5.842;2023-12-20T01:16:43;14.80;;;3.50;;
39020;SDS011;25188;51.958;5.842;2023-12-20T01:19:09;18.07;;;3.07;;
39020;SDS011;25188;51.958;5.842;2023-12-20T01:21:35;20.80;;;3.63;;
39020;SDS011;25188;51.958;5.842;2023-12-20T01:24:01;18.40;;;3.60;;
39020;SDS011;25188;51.958;5.842;2023-12-20T01:26:26;19.37;;;3.47;;
39020;SDS011;25188;51.958;5.842;2023-12-20T01:28:52;14.67;;;3.60;;
39020;SDS011;25188;51.958;5.842;2023-12-20T01:31:18;17.93;;;2.70;;
39020;SDS011;25188;51.958;5.842;2023-12-20T01:33:44;21.90;;;3.93;;
39020;SDS011;25188;51.958;5.842;2023-12-20T01:36:10;13.43;;;2.93;;
39020;SDS011;25188;51.958;5.842;2023-12-20T01:38:36;21.23;;;3.50;;
39020;SDS011;25188;51.958;5.842;2023-12-20T01:41:02;13.53;;;3.13;;
39020;SDS011;25188;51.958;5.842;2023-12-20T01:43:27;17.13;;;3.47;;
39020;SDS011;25188;51.958;5.842;2023-12-20T01:45:54;17.43;;;3.43;;
39020;SDS011;25188;51.958;5.842;2023-12-20T01:48:22;21.03;;;3.30;;
39020;SDS011;25188;51.958;5.842;2023-12-20T01:50:49;16.07;;;3.33;;
39020;SDS011;25188;51.958;5.842;2023-12-20T01:53:16;16.47;;;3.10;;
39020;SDS011;25188;51.958;5.842;2023-12-20T01:55:43;12.43;;;2.67;;
39020;SDS011;25188;51.958;5.842;2023-12-20T01:58:10;11.70;;;2.20;;
39020;SDS011;25188;51.958;5.842;2023-12-20T02:00:37;15.60;;;2.27;;
39020;SDS011;25188;51.958;5.842;2023-12-20T02:03:03;14.63;;;2.33;;
39020;SDS011;25188;51.958;5.842;2023-12-20T02:05:30;18.33;;;2.70;;
39020;SDS011;25188;51.958;5.842;2023-12-20T02:07:56;18.47;;;3.03;;
39020;SDS011;25188;51.958;5.842;2023-12-20T02:10:22;12.63;;;2.53;;
39020;SDS011;25188;51.958;5.842;2023-12-20T02:12:49;22.00;;;2.77;;
39020;SDS011;25188;51.958;5.842;2023-12-20T02:15:15;17.87;;;2.50;;
39020;SDS011;25188;51.958;5.842;2023-12-20T02:17:40;25.47;;;2.90;;
39020;SDS011;25188;51.958;5.842;2023-12-20T02:20:06;12.43;;;2.37;;
39020;SDS011;25188;51.958;5.842;2023-12-20T02:22:32;19.03;;;2.50;;
39020;SDS011;25188;51.958;5.842;2023-12-20T02:24:58;18.97;;;3.30;;
39020;SDS011;25188;51.958;5.842;2023-12-20T02:27:24;22.27;;;2.37;;
39020;SDS011;25188;51.958;5.842;2023-12-20T02:29:50;24.37;;;3.47;;
39020;SDS011;25188;51.958;5.842;2023-12-20T02:32:16;15.77;;;2.70;;
39020;SDS011;25188;51.958;5.842;2023-12-20T02:34:43;12.97;;;2.17;;
39020;SDS011;25188;51.958;5.842;2023-12-20T02:37:08;17.57;;;2.93;;
39020;SDS011;25188;51.958;5.842;2023-12-20T02:39:34;18.87;;;2.50;;
39020;SDS011;25188;51.958;5.842;2023-12-20T02:42:00;23.27;;;3.13;;
39020;SDS011;25188;51.958;5.842;2023-12-20T02:44:25;20.90;;;3.57;;
39020;SDS011;25188;51.958;5.842;2023-12-20T02:46:51;16.43;;;3.17;;
39020;SDS011;25188;51.958;5.842;2023-12-20T02:49:16;11.47;;;1.77;;
39020;SDS011;25188;51.958;5.842;2023-12-20T02:51:43;16.03;;;2.60;;
39020;SDS011;25188;51.958;5.842;2023-12-20T02:54:08;15.50;;;2.63;;
39020;SDS011;25188;51.958;5.842;2023-12-20T02:56:34;15.07;;;2.50;;
39020;SDS011;25188;51.958;5.842;2023-12-20T02:59:00;15.87;;;3.13;;
39020;SDS011;25188;51.958;5.842;2023-12-20T03:01:26;19.43;;;3.30;;
39020;SDS011;25188;51.958;5.842;2023-12-20T03:03:52;19.13;;;3.03;;
39020;SDS011;25188;51.958;5.842;2023-12-20T03:06:18;26.07;;;2.83;;
39020;SDS011;25188;51.958;5.842;2023-12-20T03:08:44;18.80;;;3.30;;
39020;SDS011;25188;51.958;5.842;2023-12-20T03:11:11;20.90;;;4.07;;
39020;SDS011;25188;51.958;5.842;2023-12-20T03:13:36;19.50;;;3.77;;
39020;SDS011;25188;51.958;5.842;2023-12-20T03:16:12;19.57;;;3.83;;
39020;SDS011;25188;51.958;5.842;2023-12-20T03:18:38;12.97;;;3.33;;
39020;SDS011;25188;51.958;5.842;2023-12-20T03:21:04;20.60;;;3.37;;
39020;SDS011;25188;51.958;5.842;2023-12-20T03:23:30;13.87;;;3.13;;
39020;SDS011;25188;51.958;5.842;2023-12-20T03:25:57;20.33;;;4.10;;
39020;SDS011;25188;51.958;5.842;2023-12-20T03:28:23;20.93;;;3.73;;
39020;SDS011;25188;51.958;5.842;2023-12-20T03:30:49;26.77;;;4.30;;
39020;SDS011;25188;51.958;5.842;2023-12-20T03:33:15;17.63;;;4.60;;
39020;SDS011;25188;51.958;5.842;2023-12-20T03:35:41;25.47;;;4.17;;
39020;SDS011;25188;51.958;5.842;2023-12-20T03:38:07;17.93;;;3.17;;
39020;SDS011;25188;51.958;5.842;2023-12-20T03:40:33;18.50;;;2.80;;
39020;SDS011;25188;51.958;5.842;2023-12-20T03:42:58;19.80;;;3.80;;
39020;SDS011;25188;51.958;5.842;2023-12-20T03:45:24;17.17;;;2.90;;
39020;SDS011;25188;51.958;5.842;2023-12-20T03:47:50;19.60;;;3.67;;
39020;SDS011;25188;51.958;5.842;2023-12-20T03:50:20;13.20;;;3.60;;
39020;SDS011;25188;51.958;5.842;2023-12-20T03:52:47;20.90;;;4.00;;
39020;SDS011;25188;51.958;5.842;2023-12-20T03:55:12;18.50;;;4.20;;
39020;SDS011;25188;51.958;5.842;2023-12-20T03:57:38;18.87;;;4.63;;
39020;SDS011;25188;51.958;5.842;2023-12-20T04:00:04;21.47;;;4.47;;
39020;SDS011;25188;51.958;5.842;2023-12-20T04:02:35;15.23;;;3.70;;
39020;SDS011;25188;51.958;5.842;2023-12-20T04:05:04;17.43;;;3.37;;
39020;SDS011;25188;51.958;5.842;2023-12-20T04:07:31;19.03;;;3.97;;
39020;SDS011;25188;51.958;5.842;2023-12-20T04:09:57;18.77;;;3.00;;
39020;SDS011;25188;51.958;5.842;2023-12-20T04:12:22;13.40;;;3.30;;
39020;SDS011;25188;51.958;5.842;2023-12-20T04:14:48;16.63;;;3.37;;
39020;SDS011;25188;51.958;5.842;2023-12-20T04:17:14;20.23;;;3.47;;
39020;SDS011;25188;51.958;5.842;2023-12-20T04:19:44;18.70;;;3.20;;
39020;SDS011;25188;51.958;5.842;2023-12-20T04:22:09;19.27;;;3.27;;
39020;SDS011;25188;51.958;5.842;2023-12-20T04:24:35;25.83;;;4.13;;
39020;SDS011;25188;51.958;5.842;2023-12-20T04:27:01;18.70;;;3.47;;
39020;SDS011;25188;51.958;5.842;2023-12-20T04:29:27;21.20;;;3.53;;
39020;SDS011;25188;51.958;5.842;2023-12-20T04:31:52;17.80;;;4.20;;
39020;SDS011;25188;51.958;5.842;2023-12-20T04:34:18;19.30;;;3.60;;
39020;SDS011;25188;51.958;5.842;2023-12-20T04:36:44;23.27;;;3.90;;
39020;SDS011;25188;51.958;5.842;2023-12-20T04:39:10;21.77;;;4.30;;
39020;SDS011;25188;51.958;5.842;2023-12-20T04:41:38;29.50;;;3.90;;
39020;SDS011;25188;51.958;5.842;2023-12-20T04:44:03;19.37;;;3.67;;
39020;SDS011;25188;51.958;5.842;2023-12-20T04:46:29;28.27;;;4.40;;
39020;SDS011;25188;51.958;5.842;2023-12-20T04:48:55;17.67;;;3.87;;
39020;SDS011;25188;51.958;5.842;2023-12-20T04:51:20;23.43;;;4.80;;
39020;SDS011;25188;51.958;5.842;2023-12-20T04:53:46;18.37;;;3.73;;
39020;SDS011;25188;51.958;5.842;2023-12-20T04:56:12;25.20;;;3.90;;
39020;SDS011;25188;51.958;5.842;2023-12-20T04:58:37;16.20;;;3.53;;
39020;SDS011;25188;51.958;5.842;2023-12-20T05:01:03;22.73;;;3.63;;
39020;SDS011;25188;51.958;5.842;2023-12-20T05:03:31;21.73;;;3.97;;
39020;SDS011;25188;51.958;5.842;2023-12-20T05:05:57;22.70;;;4.37;;
39020;SDS011;25188;51.958;5.842;2023-12-20T05:08:23;29.77;;;3.90;;
39020;SDS011;25188;51.958;5.842;2023-12-20T05:10:48;28.13;;;4.13;;
39020;SDS011;25188;51.958;5.842;2023-12-20T05:13:14;24.73;;;4.10;;
39020;SDS011;25188;51.958;5.842;2023-12-20T05:15:40;16.57;;;2.80;;
39020;SDS011;25188;51.958;5.842;2023-12-20T05:18:06;36.43;;;4.00;;
39020;SDS011;25188;51.958;5.842;2023-12-20T05:20:31;23.20;;;3.67;;
39020;SDS011;25188;51.958;5.842;2023-12-20T05:22:57;23.63;;;4.17;;
39020;SDS011;25188;51.958;5.842;2023-12-20T05:25:23;30.33;;;3.30;;
39020;SDS011;25188;51.958;5.842;2023-12-20T05:27:48;22.27;;;4.13;;
39020;SDS011;25188;51.958;5.842;2023-12-20T05:30:14;20.50;;;3.70;;
39020;SDS011;25188;51.958;5.842;2023-12-20T05:32:40;20.67;;;3.97;;
39020;SDS011;25188;51.958;5.842;2023-12-20T05:35:05;31.23;;;4.47;;
39020;SDS011;25188;51.958;5.842;2023-12-20T05:37:32;28.00;;;3.53;;
39020;SDS011;25188;51.958;5.842;2023-12-20T05:39:57;19.67;;;3.23;;
39020;SDS011;25188;51.958;5.842;2023-12-20T05:42:23;20.70;;;4.17;;
39020;SDS011;25188;51.958;5.842;2023-12-20T05:44:49;25.53;;;3.90;;
39020;SDS011;25188;51.958;5.842;2023-12-20T05:47:14;25.83;;;4.53;;
39020;SDS011;25188;51.958;5.842;2023-12-20T05:49:40;22.80;;;2.63;;
39020;SDS011;25188;51.958;5.842;2023-12-20T05:52:06;23.37;;;4.00;;
39020;SDS011;25188;51.958;5.842;2023-12-20T05:54:31;30.00;;;4.17;;
39020;SDS011;25188;51.958;5.842;2023-12-20T05:56:57;24.97;;;3.50;;
39020;SDS011;25188;51.958;5.842;2023-12-20T05:59:23;16.13;;;3.07;;
39020;SDS011;25188;51.958;5.842;2023-12-20T06:01:49;18.93;;;3.53;;
39020;SDS011;25188;51.958;5.842;2023-12-20T06:04:14;19.30;;;3.50;;
39020;SDS011;25188;51.958;5.842;2023-12-20T06:06:40;23.80;;;4.43;;
39020;SDS011;25188;51.958;5.842;2023-12-20T06:09:07;23.53;;;4.07;;
39020;SDS011;25188;51.958;5.842;2023-12-20T06:11:33;26.00;;;3.83;;
39020;SDS011;25188;51.958;5.842;2023-12-20T06:13:58;32.70;;;3.93;;
39020;SDS011;25188;51.958;5.842;2023-12-20T06:16:24;25.77;;;4.23;;
39020;SDS011;25188;51.958;5.842;2023-12-20T06:18:49;26.13;;;3.37;;
39020;SDS011;25188;51.958;5.842;2023-12-20T06:21:15;23.23;;;3.77;;
39020;SDS011;25188;51.958;5.842;2023-12-20T06:23:41;22.33;;;3.10;;
39020;SDS011;25188;51.958;5.842;2023-12-20T06:26:07;23.90;;;4.07;;
39020;SDS011;25188;51.958;5.842;2023-12-20T06:28:32;21.80;;;3.53;;
39020;SDS011;25188;51.958;5.842;2023-12-20T06:30:58;15.93;;;2.97;;
39020;SDS011;25188;51.958;5.842;2023-12-20T06:33:25;21.43;;;3.63;;
39020;SDS011;25188;51.958;5.842;2023-12-20T06:35:51;20.20;;;2.97;;
39020;SDS011;25188;51.958;5.842;2023-12-20T06:38:17;25.30;;;3.90;;
39020;SDS011;25188;51.958;5.842;2023-12-20T06:40:44;28.03;;;3.10;;
39020;SDS011;25188;51.958;5.842;2023-12-20T06:43:10;19.90;;;2.37;;
39020;SDS011;25188;51.958;5.842;2023-12-20T06:45:36;16.97;;;2.83;;
39020;SDS011;25188;51.958;5.842;2023-12-20T06:48:02;26.93;;;2.90;;
39020;SDS011;25188;51.958;5.842;2023-12-20T06:50:28;18.43;;;3.83;;
39020;SDS011;25188;51.958;5.842;2023-12-20T06:52:54;15.87;;;3.10;;
39020;SDS011;25188;51.958;5.842;2023-12-20T06:55:19;14.53;;;2.30;;
39020;SDS011;25188;51.958;5.842;2023-12-20T06:57:45;21.60;;;3.13;;
39020;SDS011;25188;51.958;5.842;2023-12-20T07:00:11;27.03;;;3.70;;
39020;SDS011;25188;51.958;5.842;2023-12-20T07:02:37;18.73;;;2.90;;
39020;SDS011;25188;51.958;5.842;2023-12-20T07:05:03;18.67;;;2.80;;
39020;SDS011;25188;51.958;5.842;2023-12-20T07:07:29;20.03;;;2.77;;
39020;SDS011;25188;51.958;5.842;2023-12-20T07:09:55;20.23;;;3.27;;
39020;SDS011;25188;51.958;5.842;2023-12-20T07:12:20;21.73;;;3.30;;
39020;SDS011;25188;51.958;5.842;2023-12-20T07:14:46;22.00;;;2.93;;
39020;SDS011;25188;51.958;5.842;2023-12-20T07:17:12;25.50;;;3.10;;
39020;SDS011;25188;51.958;5.842;2023-12-20T07:19:40;19.10;;;2.83;;
39020;SDS011;25188;51.958;5.842;2023-12-20T07:22:06;22.70;;;2.87;;
39020;SDS011;25188;51.958;5.842;2023-12-20T07:24:32;23.53;;;3.87;;
39020;SDS011;25188;51.958;5.842;2023-12-20T07:27:00;17.97;;;3.33;;
39020;SDS011;25188;51.958;5.842;2023-12-20T07:29:26;23.37;;;3.47;;
39020;SDS011;25188;51.958;5.842;2023-12-20T07:31:52;19.87;;;3.40;;
39020;SDS011;25188;51.958;5.842;2023-12-20T07:34:19;18.53;;;3.27;;
39020;SDS011;25188;51.958;5.842;2023-12-20T07:36:45;18.30;;;3.27;;
39020;SDS011;25188;51.958;5.842;2023-12-20T07:39:11;18.20;;;3.50;;
39020;SDS011;25188;51.958;5.842;2023-12-20T07:41:36;18.67;;;2.40;;
39020;SDS011;25188;51.958;5.842;2023-12-20T07:44:03;21.07;;;3.63;;
39020;SDS011;25188;51.958;5.842;2023-12-20T07:46:32;22.17;;;3.13;;
39020;SDS011;25188;51.958;5.842;2023-12-20T07:48:58;17.47;;;3.20;;
39020;SDS011;25188;51.958;5.842;2023-12-20T07:51:24;16.33;;;2.97;;
39020;SDS011;25188;51.958;5.842;2023-12-20T07:53:49;16.20;;;3.07;;
39020;SDS011;25188;51.958;5.842;2023-12-20T07:56:19;21.73;;;3.07;;
39020;SDS011;25188;51.958;5.842;2023-12-20T07:58:45;17.77;;;2.03;;
39020;SDS011;25188;51.958;5.842;2023-12-20T08:01:13;24.57;;;4.17;;
39020;SDS011;25188;51.958;5.842;2023-12-20T08:03:41;17.20;;;3.37;;
39020;SDS011;25188;51.958;5.842;2023-12-20T08:06:06;15.20;;;2.87;;
39020;SDS011;25188;51.958;5.842;2023-12-20T08:08:32;18.30;;;2.57;;
39020;SDS011;25188;51.958;5.842;2023-12-20T08:10:58;18.63;;;3.30;;
39020;SDS011;25188;51.958;5.842;2023-12-20T08:13:27;26.53;;;2.93;;
39020;SDS011;25188;51.958;5.842;2023-12-20T08:15:53;21.77;;;3.60;;
39020;SDS011;25188;51.958;5.842;2023-12-20T08:18:19;21.43;;;3.07;;
39020;SDS011;25188;51.958;5.842;2023-12-20T08:20:48;15.77;;;2.97;;
39020;SDS011;25188;51.958;5.842;2023-12-20T08:23:15;22.00;;;3.60;;
39020;SDS011;25188;51.958;5.842;2023-12-20T08:25:40;18.17;;;3.00;;
39020;SDS011;25188;51.958;5.842;2023-12-20T08:28:06;19.93;;;3.13;;
39020;SDS011;25188;51.958;5.842;2023-12-20T08:30:32;21.53;;;3.00;;
39020;SDS011;25188;51.958;5.842;2023-12-20T08:33:00;17.43;;;3.17;;
39020;SDS011;25188;51.958;5.842;2023-12-20T08:35:27;37.40;;;4.43;;
39020;SDS011;25188;51.958;5.842;2023-12-20T08:37:53;19.13;;;3.20;;
39020;SDS011;25188;51.958;5.842;2023-12-20T08:40:18;15.97;;;2.67;;
39020;SDS011;25188;51.958;5.842;2023-12-20T08:42:45;20.27;;;3.53;;
39020;SDS011;25188;51.958;5.842;2023-12-20T08:45:11;15.83;;;2.87;;
39020;SDS011;25188;51.958;5.842;2023-12-20T08:47:36;13.87;;;2.30;;
39020;SDS011;25188;51.958;5.842;2023-12-20T08:50:02;20.13;;;3.37;;
39020;SDS011;25188;51.958;5.842;2023-12-20T08:52:28;20.87;;;2.97;;
39020;SDS011;25188;51.958;5.842;2023-12-20T08:54:54;19.00;;;2.57;;
39020;SDS011;25188;51.958;5.842;2023-12-20T08:57:20;22.43;;;2.90;;
39020;SDS011;25188;51.958;5.842;2023-12-20T08:59:47;15.93;;;2.73;;
39020;SDS011;25188;51.958;5.842;2023-12-20T09:02:13;16.43;;;3.27;;
39020;SDS011;25188;51.958;5.842;2023-12-20T09:04:39;24.23;;;3.57;;
39020;SDS011;25188;51.958;5.842;2023-12-20T09:07:05;23.70;;;3.10;;
39020;SDS011;25188;51.958;5.842;2023-12-20T09:09:30;17.50;;;3.30;;
39020;SDS011;25188;51.958;5.842;2023-12-20T09:11:57;20.07;;;3.17;;
39020;SDS011;25188;51.958;5.842;2023-12-20T09:14:23;20.37;;;2.93;;
39020;SDS011;25188;51.958;5.842;2023-12-20T09:16:48;20.83;;;3.07;;
39020;SDS011;25188;51.958;5.842;2023-12-20T09:19:17;14.20;;;3.93;;
39020;SDS011;25188;51.958;5.842;2023-12-20T09:21:43;24.27;;;3.10;;
39020;SDS011;25188;51.958;5.842;2023-12-20T09:24:08;18.03;;;3.20;;
39020;SDS011;25188;51.958;5.842;2023-12-20T09:26:34;18.23;;;2.60;;
39020;SDS011;25188;51.958;5.842;2023-12-20T09:29:00;24.37;;;3.47;;
39020;SDS011;25188;51.958;5.842;2023-12-20T09:31:26;22.17;;;3.40;;
39020;SDS011;25188;51.958;5.842;2023-12-20T09:33:51;17.03;;;3.23;;
39020;SDS011;25188;51.958;5.842;2023-12-20T09:36:17;17.20;;;3.07;;
39020;SDS011;25188;51.958;5.842;2023-12-20T09:38:43;17.83;;;2.30;;
39020;SDS011;25188;51.958;5.842;2023-12-20T09:41:09;22.83;;;3.70;;
39020;SDS011;25188;51.958;5.842;2023-12-20T09:43:37;22.47;;;3.50;;
39020;SDS011;25188;51.958;5.842;2023-12-20T09:46:05;17.70;;;2.70;;
39020;SDS011;25188;51.958;5.842;2023-12-20T09:48:32;21.53;;;3.83;;
39020;SDS011;25188;51.958;5.842;2023-12-20T09:50:59;19.07;;;3.23;;
39020;SDS011;25188;51.958;5.842;2023-12-20T09:53:24;20.53;;;3.27;;
39020;SDS011;25188;51.958;5.842;2023-12-20T09:55:55;19.00;;;2.87;;
39020;SDS011;25188;51.958;5.842;2023-12-20T09:58:24;22.53;;;3.10;;
39020;SDS011;25188;51.958;5.842;2023-12-20T10:00:50;21.17;;;3.00;;
39020;SDS011;25188;51.958;5.842;2023-12-20T10:03:16;20.03;;;2.80;;
39020;SDS011;25188;51.958;5.842;2023-12-20T10:05:43;16.13;;;2.77;;
39020;SDS011;25188;51.958;5.842;2023-12-20T10:08:09;19.23;;;3.83;;
39020;SDS011;25188;51.958;5.842;2023-12-20T10:10:35;16.40;;;3.33;;
39020;SDS011;25188;51.958;5.842;2023-12-20T10:13:07;16.13;;;2.40;;
39020;SDS011;25188;51.958;5.842;2023-12-20T10:15:35;14.73;;;2.60;;
39020;SDS011;25188;51.958;5.842;2023-12-20T10:18:02;17.43;;;2.80;;
39020;SDS011;25188;51.958;5.842;2023-12-20T10:20:29;16.83;;;3.10;;
39020;SDS011;25188;51.958;5.842;2023-12-20T10:22:55;19.60;;;2.93;;
39020;SDS011;25188;51.958;5.842;2023-12-20T10:25:22;16.63;;;2.83;;
39020;SDS011;25188;51.958;5.842;2023-12-20T10:27:49;13.90;;;2.17;;
39020;SDS011;25188;51.958;5.842;2023-12-20T10:30:15;19.73;;;2.90;;
39020;SDS011;25188;51.958;5.842;2023-12-20T10:32:41;22.27;;;3.73;;
39020;SDS011;25188;51.958;5.842;2023-12-20T10:35:08;19.57;;;2.90;;
39020;SDS011;25188;51.958;5.842;2023-12-20T10:37:35;19.10;;;2.80;;
39020;SDS011;25188;51.958;5.842;2023-12-20T10:40:02;19.63;;;2.40;;
39020;SDS011;25188;51.958;5.842;2023-12-20T10:42:32;15.23;;;2.93;;
39020;SDS011;25188;51.958;5.842;2023-12-20T10:44:59;15.33;;;2.23;;
39020;SDS011;25188;51.958;5.842;2023-12-20T10:47:25;14.20;;;2.33;;
39020;SDS011;25188;51.958;5.842;2023-12-20T10:49:53;19.07;;;2.53;;
39020;SDS011;25188;51.958;5.842;2023-12-20T10:52:22;12.50;;;2.27;;
39020;SDS011;25188;51.958;5.842;2023-12-20T10:54:49;20.37;;;3.27;;
39020;SDS011;25188;51.958;5.842;2023-12-20T10:57:15;22.07;;;3.67;;
39020;SDS011;25188;51.958;5.842;2023-12-20T10:59:44;14.03;;;2.13;;
39020;SDS011;25188;51.958;5.842;2023-12-20T11:02:14;20.00;;;2.93;;
39020;SDS011;25188;51.958;5.842;2023-12-20T11:07:15;14.80;;;2.37;;
39020;SDS011;25188;51.958;5.842;2023-12-20T11:09:57;19.43;;;2.80;;
39020;SDS011;25188;51.958;5.842;2023-12-20T11:12:48;23.20;;;3.77;;
39020;SDS011;25188;51.958;5.842;2023-12-20T11:15:19;24.57;;;2.80;;
39020;SDS011;25188;51.958;5.842;2023-12-20T11:17:46;22.80;;;3.27;;
39020;SDS011;25188;51.958;5.842;2023-12-20T11:20:19;14.67;;;2.83;;
39020;SDS011;25188;51.958;5.842;2023-12-20T11:22:52;17.97;;;2.40;;
39020;SDS011;25188;51.958;5.842;2023-12-20T11:25:18;21.33;;;3.00;;
39020;SDS011;25188;51.958;5.842;2023-12-20T11:27:44;22.23;;;2.87;;
39020;SDS011;25188;51.958;5.842;2023-12-20T11:30:49;16.60;;;3.27;;
39020;SDS011;25188;51.958;5.842;2023-12-20T11:33:25;16.88;;;2.10;;
39020;SDS011;25188;51.958;5.842;2023-12-20T11:35:55;10.53;;;2.03;;
39020;SDS011;25188;51.958;5.842;2023-12-20T11:38:22;17.30;;;2.60;;
39020;SDS011;25188;51.958;5.842;2023-12-20T11:40:49;16.60;;;3.33;;
39020;SDS011;25188;51.958;5.842;2023-12-20T11:46:04;14.70;;;3.17;;
39020;SDS011;25188;51.958;5.842;2023-12-20T11:48:31;17.20;;;2.90;;
39020;SDS011;25188;51.958;5.842;2023-12-20T11:50:57;25.40;;;3.43;;
39020;SDS011;25188;51.958;5.842;2023-12-20T11:53:24;13.60;;;2.37;;
39020;SDS011;25188;51.958;5.842;2023-12-20T11:55:50;16.90;;;4.07;;
39020;SDS011;25188;51.958;5.842;2023-12-20T11:58:16;21.90;;;3.53;;
39020;SDS011;25188;51.958;5.842;2023-12-20T12:00:42;18.73;;;3.13;;
39020;SDS011;25188;51.958;5.842;2023-12-20T12:03:08;19.87;;;3.30;;
39020;SDS011;25188;51.958;5.842;2023-12-20T12:05:34;21.27;;;2.40;;
39020;SDS011;25188;51.958;5.842;2023-12-20T12:08:03;22.20;;;2.77;;
39020;SDS011;25188;51.958;5.842;2023-12-20T12:10:30;21.87;;;3.33;;
39020;SDS011;25188;51.958;5.842;2023-12-20T12:12:56;15.07;;;2.23;;
39020;SDS011;25188;51.958;5.842;2023-12-20T12:15:22;15.43;;;2.03;;
39020;SDS011;25188;51.958;5.842;2023-12-20T12:17:54;13.17;;;1.60;;
39020;SDS011;25188;51.958;5.842;2023-12-20T12:20:21;13.90;;;2.13;;
39020;SDS011;25188;51.958;5.842;2023-12-20T12:22:57;22.87;;;2.90;;
39020;SDS011;25188;51.958;5.842;2023-12-20T12:25:26;13.70;;;2.20;;
39020;SDS011;25188;51.958;5.842;2023-12-20T12:27:53;12.33;;;1.50;;
39020;SDS011;25188;51.958;5.842;2023-12-20T12:30:19;10.53;;;2.00;;
39020;SDS011;25188;51.958;5.842;2023-12-20T12:32:45;15.27;;;2.23;;
39020;SDS011;25188;51.958;5.842;2023-12-20T12:35:10;12.30;;;1.77;;
39020;SDS011;25188;51.958;5.842;2023-12-20T12:37:40;20.47;;;2.50;;
39020;SDS011;25188;51.958;5.842;2023-12-20T12:40:09;18.67;;;2.57;;
39020;SDS011;25188;51.958;5.842;2023-12-20T12:42:36;20.43;;;2.20;;
39020;SDS011;25188;51.958;5.842;2023-12-20T12:45:02;18.57;;;3.20;;
39020;SDS011;25188;51.958;5.842;2023-12-20T12:47:29;14.33;;;2.00;;
39020;SDS011;25188;51.958;5.842;2023-12-20T12:49:55;17.10;;;2.13;;
39020;SDS011;25188;51.958;5.842;2023-12-20T12:52:21;12.27;;;2.15;;
39020;SDS011;25188;51.958;5.842;2023-12-20T12:54:47;12.40;;;1.90;;
39020;SDS011;25188;51.958;5.842;2023-12-20T12:57:14;13.50;;;1.93;;
39020;SDS011;25188;51.958;5.842;2023-12-20T12:59:41;11.13;;;2.00;;
39020;SDS011;25188;51.958;5.842;2023-12-20T13:02:07;15.40;;;2.37;;
39020;SDS011;25188;51.958;5.842;2023-12-20T13:04:33;19.10;;;2.57;;
39020;SDS011;25188;51.958;5.842;2023-12-20T13:06:59;14.03;;;2.30;;
39020;SDS011;25188;51.958;5.842;2023-12-20T13:09:25;17.43;;;2.53;;
39020;SDS011;25188;51.958;5.842;2023-12-20T13:11:50;14.23;;;2.37;;
39020;SDS011;25188;51.958;5.842;2023-12-20T13:14:16;14.77;;;2.73;;
39020;SDS011;25188;51.958;5.842;2023-12-20T13:16:42;12.67;;;2.00;;
39020;SDS011;25188;51.958;5.842;2023-12-20T13:19:07;19.27;;;2.63;;
39020;SDS011;25188;51.958;5.842;2023-12-20T13:21:34;19.60;;;2.93;;
39020;SDS011;25188;51.958;5.842;2023-12-20T13:24:00;15.13;;;1.93;;
39020;SDS011;25188;51.958;5.842;2023-12-20T13:26:26;14.30;;;2.33;;
39020;SDS011;25188;51.958;5.842;2023-12-20T13:28:52;16.00;;;2.43;;
39020;SDS011;25188;51.958;5.842;2023-12-20T13:31:19;13.53;;;1.97;;
39020;SDS011;25188;51.958;5.842;2023-12-20T13:33:45;17.23;;;2.50;;
39020;SDS011;25188;51.958;5.842;2023-12-20T13:36:11;16.70;;;2.30;;
39020;SDS011;25188;51.958;5.842;2023-12-20T13:38:38;14.47;;;2.43;;
39020;SDS011;25188;51.958;5.842;2023-12-20T13:41:03;13.53;;;1.70;;
39020;SDS011;25188;51.958;5.842;2023-12-20T13:43:30;17.10;;;2.30;;
39020;SDS011;25188;51.958;5.842;2023-12-20T13:45:57;15.33;;;2.20;;
39020;SDS011;25188;51.958;5.842;2023-12-20T13:48:23;12.30;;;2.03;;
39020;SDS011;25188;51.958;5.842;2023-12-20T13:50:49;15.47;;;2.33;;
39020;SDS011;25188;51.958;5.842;2023-12-20T13:53:15;17.23;;;2.23;;
39020;SDS011;25188;51.958;5.842;2023-12-20T13:55:41;12.60;;;1.70;;
39020;SDS011;25188;51.958;5.842;2023-12-20T13:58:07;13.23;;;2.30;;
39020;SDS011;25188;51.958;5.842;2023-12-20T14:00:32;15.87;;;1.67;;
39020;SDS011;25188;51.958;5.842;2023-12-20T14:02:58;18.73;;;2.17;;
39020;SDS011;25188;51.958;5.842;2023-12-20T14:05:24;19.57;;;2.50;;
39020;SDS011;25188;51.958;5.842;2023-12-20T14:07:49;17.43;;;2.07;;
39020;SDS011;25188;51.958;5.842;2023-12-20T14:10:15;15.60;;;1.93;;
39020;SDS011;25188;51.958;5.842;2023-12-20T14:12:41;14.93;;;1.93;;
39020;SDS011;25188;51.958;5.842;2023-12-20T14:15:07;14.93;;;1.97;;
39020;SDS011;25188;51.958;5.842;2023-12-20T14:17:38;19.73;;;3.20;;
39020;SDS011;25188;51.958;5.842;2023-12-20T14:20:07;18.43;;;2.57;;
39020;SDS011;25188;51.958;5.842;2023-12-20T14:22:34;15.90;;;2.10;;
39020;SDS011;25188;51.958;5.842;2023-12-20T14:25:00;11.13;;;1.40;;
39020;SDS011;25188;51.958;5.842;2023-12-20T14:27:27;9.60;;;1.83;;
39020;SDS011;25188;51.958;5.842;2023-12-20T14:29:54;13.90;;;2.03;;
39020;SDS011;25188;51.958;5.842;2023-12-20T14:32:19;16.70;;;2.27;;
39020;SDS011;25188;51.958;5.842;2023-12-20T14:34:45;19.20;;;2.07;;
39020;SDS011;25188;51.958;5.842;2023-12-20T14:37:11;14.10;;;1.80;;